Aviation Digital Data Service (ADDS)

Output produced by TAFs form (0629 UTC 27 March 2017)
found at http://www.aviationweather.gov/adds/tafs/
 
METAR text: RJTK 270606Z 36017KT 9999 FEW015 BKN020 BKN100 08/04 Q1008 RMK 1CU015 5CU020 7AC100 A2977
Conditions at: RJTK (KISARAZU (JGSDF), JP) observed 0606 UTC 27 March 2017
Temperature: 8.0°C (46°F)
Dewpoint: 4.0°C (39°F) [RH = 76%]
Pressure (altimeter): 29.76 inches Hg (1008.0 mb)
Winds: from the N (360 degrees) at 20 MPH (17 knots; 8.8 m/s)
Visibility: 6 or more miles (10+ km)
Ceiling: 2000 feet AGL
Clouds: few clouds at 1500 feet AGL
broken clouds at 2000 feet AGL
broken clouds at 10000 feet AGL
Weather: no significant weather observed at this time